createdAt,value
2018-07-20T00:00:04.539Z,958.24
2018-07-20T00:01:04.505Z,958.24
2018-07-20T00:02:04.551Z,958.24
2018-07-20T00:03:04.499Z,958.24
2018-07-20T00:04:04.472Z,958.22
2018-07-20T00:05:04.459Z,958.26
2018-07-20T00:06:04.448Z,958.24
2018-07-20T00:07:04.631Z,958.20
2018-07-20T00:08:04.445Z,958.22
2018-07-20T00:09:04.430Z,958.21
2018-07-20T00:10:04.407Z,958.21
2018-07-20T00:11:04.402Z,958.20
2018-07-20T00:12:04.410Z,958.18
2018-07-20T00:13:04.422Z,958.15
2018-07-20T00:14:04.367Z,958.13
2018-07-20T00:15:04.386Z,958.13
2018-07-20T00:16:04.340Z,958.12
2018-07-20T00:17:04.334Z,958.06
2018-07-20T00:18:04.332Z,958.07
2018-07-20T00:19:04.341Z,958.10
2018-07-20T00:20:04.318Z,958.10
2018-07-20T00:21:04.331Z,958.07
2018-07-20T00:22:04.353Z,958.08
2018-07-20T00:23:04.266Z,958.03
2018-07-20T00:24:04.285Z,958.01
2018-07-20T00:25:04.244Z,958.00
2018-07-20T00:26:05.152Z,957.95
2018-07-20T00:27:04.221Z,957.98
2018-07-20T00:28:04.209Z,957.95
2018-07-20T00:29:04.243Z,957.94
2018-07-20T00:30:04.195Z,957.94
2018-07-20T00:31:04.187Z,957.91
2018-07-20T00:32:04.182Z,957.98
2018-07-20T00:33:04.158Z,957.95
2018-07-20T00:34:04.160Z,957.93
2018-07-20T00:35:04.179Z,957.94
2018-07-20T00:36:04.230Z,957.93
2018-07-20T00:37:04.113Z,957.89
2018-07-20T00:38:04.107Z,957.90
2018-07-20T00:39:04.145Z,957.90
2018-07-20T00:40:04.082Z,957.88
2018-07-20T00:41:04.093Z,957.84
2018-07-20T00:42:04.065Z,957.85
2018-07-20T00:43:04.051Z,957.87
2018-07-20T00:44:04.042Z,957.89
2018-07-20T00:45:04.084Z,957.84
2018-07-20T00:46:04.014Z,957.82
2018-07-20T00:47:04.005Z,957.81
2018-07-20T00:48:04.668Z,957.80
2018-07-20T00:49:03.988Z,957.81
2018-07-20T00:50:03.975Z,957.82
2018-07-20T00:51:03.997Z,957.78
2018-07-20T00:52:03.952Z,957.80
2018-07-20T00:53:03.939Z,957.81
2018-07-20T00:54:03.939Z,957.86
2018-07-20T00:55:03.936Z,957.86
2018-07-20T00:56:03.963Z,957.82
2018-07-20T00:57:03.900Z,957.82
2018-07-20T00:58:03.889Z,957.83
2018-07-20T00:59:03.879Z,957.85
2018-07-20T01:00:03.864Z,957.84
2018-07-20T01:01:03.890Z,957.82
2018-07-20T01:02:03.860Z,957.82
2018-07-20T01:03:03.840Z,957.83
2018-07-20T01:04:03.844Z,957.84
2018-07-20T01:05:03.818Z,957.80
2018-07-20T01:06:03.851Z,957.86
2018-07-20T01:07:03.816Z,957.82
2018-07-20T01:08:03.775Z,957.85
2018-07-20T01:09:03.796Z,957.83
2018-07-20T01:10:03.756Z,957.81
2018-07-20T01:11:03.793Z,957.81
2018-07-20T01:12:03.739Z,957.79
2018-07-20T01:13:03.747Z,957.74
2018-07-20T01:14:03.774Z,957.76
2018-07-20T01:15:03.722Z,957.80
2018-07-20T01:16:03.704Z,957.77
2018-07-20T01:17:03.737Z,957.76
2018-07-20T01:18:03.668Z,957.77
2018-07-20T01:19:03.666Z,957.74
2018-07-20T01:20:03.652Z,957.75
2018-07-20T01:21:03.663Z,957.73
2018-07-20T01:22:03.685Z,957.69
2018-07-20T01:23:03.615Z,957.71
2018-07-20T01:24:03.616Z,957.70
2018-07-20T01:25:03.603Z,957.74
2018-07-20T01:26:06.617Z,957.68
2018-07-20T01:27:03.611Z,957.71
2018-07-20T01:28:03.602Z,957.67
2018-07-20T01:29:03.548Z,957.69
2018-07-20T01:30:03.548Z,957.69
2018-07-20T01:31:03.563Z,957.70
2018-07-20T01:32:03.526Z,957.72
2018-07-20T01:33:03.739Z,957.67
2018-07-20T01:34:03.503Z,957.68
2018-07-20T01:35:03.491Z,957.71
2018-07-20T01:36:03.489Z,957.70
2018-07-20T01:37:03.469Z,957.69
2018-07-20T01:38:03.506Z,957.68
2018-07-20T01:39:03.443Z,957.69
2018-07-20T01:40:03.440Z,957.68
2018-07-20T01:41:03.423Z,957.65
2018-07-20T01:42:03.414Z,957.64
2018-07-20T01:43:03.410Z,957.62
2018-07-20T01:44:03.429Z,957.62
2018-07-20T01:45:03.391Z,957.62
2018-07-20T01:46:03.383Z,957.61
2018-07-20T01:47:03.387Z,957.65
2018-07-20T01:48:03.345Z,957.62
2018-07-20T01:49:03.383Z,957.60
2018-07-20T01:50:03.377Z,957.62
2018-07-20T01:51:03.319Z,957.60
2018-07-20T01:52:03.316Z,957.57
2018-07-20T01:53:03.293Z,957.59
2018-07-20T01:54:03.283Z,957.58
2018-07-20T01:55:03.310Z,957.58
2018-07-20T01:56:03.257Z,957.58
2018-07-20T01:57:03.255Z,957.57
2018-07-20T01:58:03.237Z,957.62
2018-07-20T01:59:03.238Z,957.61
2018-07-20T02:00:03.289Z,957.61
2018-07-20T02:01:03.206Z,957.65
2018-07-20T02:02:03.196Z,957.60
2018-07-20T02:03:03.187Z,957.62
2018-07-20T02:04:03.172Z,957.59
2018-07-20T02:05:03.178Z,957.66
2018-07-20T02:06:03.184Z,957.61
2018-07-20T02:07:03.141Z,957.67
2018-07-20T02:08:03.145Z,957.65
2018-07-20T02:09:03.121Z,957.65
2018-07-20T02:10:03.108Z,957.64
2018-07-20T02:11:03.142Z,957.65
2018-07-20T02:12:03.099Z,957.63
2018-07-20T02:13:03.110Z,957.63
2018-07-20T02:14:03.082Z,957.64
2018-07-20T02:15:03.068Z,957.63
2018-07-20T02:16:03.220Z,957.60
2018-07-20T02:17:03.069Z,957.59
2018-07-20T02:18:03.032Z,957.62
2018-07-20T02:19:03.029Z,957.62
2018-07-20T02:20:03.009Z,957.62
2018-07-20T02:21:02.991Z,957.60
2018-07-20T02:22:03.018Z,957.59
2018-07-20T02:23:02.973Z,957.59
2018-07-20T02:24:02.969Z,957.59
2018-07-20T02:25:02.946Z,957.57
2018-07-20T02:26:02.952Z,957.60
2018-07-20T02:27:02.951Z,957.58
2018-07-20T02:28:03.223Z,957.53
2018-07-20T02:29:02.915Z,957.52
2018-07-20T02:30:02.901Z,957.45
2018-07-20T02:31:02.909Z,957.50
2018-07-20T02:32:02.870Z,957.48
2018-07-20T02:33:02.892Z,957.46
2018-07-20T02:34:02.848Z,957.47
2018-07-20T02:35:02.841Z,957.50
2018-07-20T02:36:02.842Z,957.47
2018-07-20T02:37:02.821Z,957.42
2018-07-20T02:38:02.989Z,957.46
2018-07-20T02:39:02.809Z,957.47
2018-07-20T02:40:02.782Z,957.38
2018-07-20T02:41:02.775Z,957.39
2018-07-20T02:42:02.761Z,957.47
2018-07-20T02:43:02.754Z,957.46
2018-07-20T02:44:02.776Z,957.45
2018-07-20T02:45:02.732Z,957.40
2018-07-20T02:46:02.722Z,957.44
2018-07-20T02:47:02.706Z,957.40
2018-07-20T02:48:02.699Z,957.45
2018-07-20T02:49:02.736Z,957.45
2018-07-20T02:50:02.674Z,957.46
2018-07-20T02:51:02.665Z,957.44
2018-07-20T02:52:02.672Z,957.43
2018-07-20T02:53:02.651Z,957.37
2018-07-20T02:54:02.637Z,957.43
2018-07-20T02:55:02.656Z,957.42
2018-07-20T02:56:02.607Z,957.37
2018-07-20T02:57:02.624Z,957.39
2018-07-20T02:58:02.632Z,957.34
2018-07-20T02:59:02.588Z,957.36
2018-07-20T03:00:02.738Z,957.35
2018-07-20T03:01:02.557Z,957.29
2018-07-20T03:02:02.543Z,957.28
2018-07-20T03:03:02.539Z,957.30
2018-07-20T03:04:02.524Z,957.35
2018-07-20T03:05:02.719Z,957.35
2018-07-20T03:06:02.500Z,957.33
2018-07-20T03:07:02.488Z,957.36
2018-07-20T03:08:02.482Z,957.35
2018-07-20T03:09:02.487Z,957.34
2018-07-20T03:10:02.459Z,957.31
2018-07-20T03:11:02.503Z,957.32
2018-07-20T03:12:02.458Z,957.33
2018-07-20T03:13:02.425Z,957.35
2018-07-20T03:14:02.426Z,957.37
2018-07-20T03:15:02.405Z,957.44
2018-07-20T03:16:02.715Z,957.40
2018-07-20T03:17:02.389Z,957.43
2018-07-20T03:18:02.369Z,957.40
2018-07-20T03:19:02.359Z,957.38
2018-07-20T03:20:02.344Z,957.42
2018-07-20T03:21:02.384Z,957.42
2018-07-20T03:22:02.373Z,957.38
2018-07-20T03:23:02.315Z,957.38
2018-07-20T03:24:02.302Z,957.39
2018-07-20T03:25:02.291Z,957.40
2018-07-20T03:26:02.282Z,957.34
2018-07-20T03:27:02.341Z,957.33
2018-07-20T03:28:02.272Z,957.38
2018-07-20T03:29:02.250Z,957.36
2018-07-20T03:30:02.240Z,957.37
2018-07-20T03:31:02.268Z,957.34
2018-07-20T03:32:02.222Z,957.37
2018-07-20T03:33:02.247Z,957.34
2018-07-20T03:34:02.201Z,957.33
2018-07-20T03:35:02.215Z,957.32
2018-07-20T03:36:02.176Z,957.33
2018-07-20T03:37:02.177Z,957.39
2018-07-20T03:38:02.180Z,957.38
2018-07-20T03:39:02.146Z,957.29
2018-07-20T03:40:02.146Z,957.37
2018-07-20T03:41:02.120Z,957.37
2018-07-20T03:42:02.119Z,957.33
2018-07-20T03:43:02.273Z,957.30
2018-07-20T03:44:02.086Z,957.28
2018-07-20T03:45:02.090Z,957.28
2018-07-20T03:46:02.062Z,957.31
2018-07-20T03:47:02.051Z,957.35
2018-07-20T03:48:02.058Z,957.27
2018-07-20T03:49:02.129Z,957.33
2018-07-20T03:50:02.015Z,957.32
2018-07-20T03:51:02.009Z,957.33
2018-07-20T03:52:02.012Z,957.27
2018-07-20T03:53:01.995Z,957.31
2018-07-20T03:54:01.971Z,957.33
2018-07-20T03:55:01.993Z,957.34
2018-07-20T03:56:01.955Z,957.37
2018-07-20T03:57:01.943Z,957.29
2018-07-20T03:58:01.939Z,957.30
2018-07-20T03:59:01.915Z,957.38
2018-07-20T04:00:02.216Z,957.37
2018-07-20T04:01:01.893Z,957.31
2018-07-20T04:02:01.894Z,957.33
2018-07-20T04:03:01.877Z,957.27
2018-07-20T04:04:01.860Z,957.25
2018-07-20T04:05:01.905Z,957.21
2018-07-20T04:06:01.861Z,957.27
2018-07-20T04:07:01.828Z,957.27
2018-07-20T04:08:01.838Z,957.24
2018-07-20T04:09:01.825Z,957.25
2018-07-20T04:10:01.797Z,957.26
2018-07-20T04:11:01.875Z,957.22
2018-07-20T04:12:01.778Z,957.18
2018-07-20T04:13:01.768Z,957.17
2018-07-20T04:14:01.752Z,957.22
2018-07-20T04:15:01.750Z,957.16
2018-07-20T04:16:01.883Z,957.20
2018-07-20T04:17:01.720Z,957.18
2018-07-20T04:18:01.715Z,957.21
2018-07-20T04:19:01.712Z,957.22
2018-07-20T04:20:01.694Z,957.21
2018-07-20T04:21:01.682Z,957.28
2018-07-20T04:22:01.698Z,957.25
2018-07-20T04:23:01.661Z,957.22
2018-07-20T04:24:01.640Z,957.22
2018-07-20T04:25:01.658Z,957.24
2018-07-20T04:26:01.623Z,957.25
2018-07-20T04:27:01.656Z,957.23
2018-07-20T04:28:01.601Z,957.24
2018-07-20T04:29:01.590Z,957.21
2018-07-20T04:30:01.578Z,957.21
2018-07-20T04:31:01.580Z,957.19
2018-07-20T04:32:01.725Z,957.21
2018-07-20T04:33:01.543Z,957.25
2018-07-20T04:34:01.535Z,957.29
2018-07-20T04:35:01.527Z,957.25
2018-07-20T04:36:01.515Z,957.29
2018-07-20T04:37:01.499Z,957.31
2018-07-20T04:38:01.524Z,957.29
2018-07-20T04:39:01.481Z,957.29
2018-07-20T04:40:01.466Z,957.25
2018-07-20T04:41:01.483Z,957.24
2018-07-20T04:42:01.451Z,957.20
2018-07-20T04:43:01.563Z,957.18
2018-07-20T04:44:01.438Z,957.22
2018-07-20T04:45:01.410Z,957.19
2018-07-20T04:46:01.407Z,957.17
2018-07-20T04:47:01.398Z,957.22
2018-07-20T04:48:01.379Z,957.20
2018-07-20T04:49:01.752Z,957.23
2018-07-20T04:50:01.493Z,957.20
2018-07-20T04:51:01.347Z,957.23
2018-07-20T04:52:01.342Z,957.28
2018-07-20T04:53:01.364Z,957.26
2018-07-20T04:54:01.350Z,957.27
2018-07-20T04:55:01.305Z,957.27
2018-07-20T04:56:01.309Z,957.28
2018-07-20T04:57:01.281Z,957.26
2018-07-20T04:58:01.283Z,957.30
2018-07-20T04:59:01.633Z,957.23
2018-07-20T05:00:01.249Z,957.21
2018-07-20T05:01:01.249Z,957.24
2018-07-20T05:02:01.251Z,957.26
2018-07-20T05:03:01.220Z,957.25
2018-07-20T05:04:01.208Z,957.21
2018-07-20T05:05:01.231Z,957.20
2018-07-20T05:06:01.291Z,957.19
2018-07-20T05:07:01.181Z,957.20
2018-07-20T05:08:01.193Z,957.26
2018-07-20T05:09:01.157Z,957.19
2018-07-20T05:10:01.207Z,957.19
2018-07-20T05:11:01.129Z,957.19
2018-07-20T05:12:01.120Z,957.22
2018-07-20T05:13:01.113Z,957.19
2018-07-20T05:14:01.117Z,957.21
2018-07-20T05:15:01.106Z,957.20
2018-07-20T05:16:01.140Z,957.24
2018-07-20T05:17:01.099Z,957.19
2018-07-20T05:18:01.072Z,957.18
2018-07-20T05:19:01.049Z,957.22
2018-07-20T05:20:01.089Z,957.20
2018-07-20T05:21:01.064Z,957.22
2018-07-20T05:22:01.029Z,957.18
2018-07-20T05:23:01.010Z,957.21
2018-07-20T05:24:01.013Z,957.19
2018-07-20T05:25:00.988Z,957.21
2018-07-20T05:26:01.011Z,957.18
2018-07-20T05:27:01.005Z,957.20
2018-07-20T05:28:00.996Z,957.20
2018-07-20T05:29:00.945Z,957.14
2018-07-20T05:30:00.929Z,957.18
2018-07-20T05:31:00.997Z,957.20
2018-07-20T05:32:00.947Z,957.21
2018-07-20T05:33:00.895Z,957.17
2018-07-20T05:34:00.887Z,957.20
2018-07-20T05:35:01.004Z,957.18
2018-07-20T05:36:00.863Z,957.16
2018-07-20T05:37:00.856Z,957.12
2018-07-20T05:38:00.907Z,957.15
2018-07-20T05:39:00.833Z,957.15
2018-07-20T05:40:00.829Z,957.17
2018-07-20T05:41:00.807Z,957.12
2018-07-20T05:42:00.798Z,957.13
2018-07-20T05:43:00.841Z,957.15
2018-07-20T05:44:00.810Z,957.12
2018-07-20T05:45:00.772Z,957.13
2018-07-20T05:46:00.767Z,957.15
2018-07-20T05:47:00.762Z,957.11
2018-07-20T05:48:00.733Z,957.17
2018-07-20T05:49:00.752Z,957.15
2018-07-20T05:50:00.718Z,957.19
2018-07-20T05:51:00.696Z,957.17
2018-07-20T05:52:00.709Z,957.16
2018-07-20T05:53:00.673Z,957.18
2018-07-20T05:54:00.708Z,957.15
2018-07-20T05:55:00.673Z,957.14
2018-07-20T05:56:00.647Z,957.10
2018-07-20T05:57:00.701Z,957.11
2018-07-20T05:58:00.627Z,957.14
2018-07-20T05:59:00.655Z,957.11
2018-07-20T06:00:00.602Z,957.12
2018-07-20T06:01:00.591Z,957.10
2018-07-20T06:02:00.587Z,957.13
2018-07-20T06:03:00.562Z,957.14
2018-07-20T06:04:00.581Z,957.08
2018-07-20T06:05:00.576Z,957.08
2018-07-20T06:06:00.538Z,957.09
2018-07-20T06:07:00.576Z,957.07
2018-07-20T06:08:00.510Z,957.08
2018-07-20T06:09:00.509Z,957.09
2018-07-20T06:10:00.536Z,957.11
2018-07-20T06:11:00.501Z,957.07
2018-07-20T06:12:00.483Z,957.06
2018-07-20T06:13:00.474Z,957.10
2018-07-20T06:14:00.448Z,957.10
2018-07-20T06:15:00.432Z,957.08
2018-07-20T06:16:00.460Z,957.10
2018-07-20T06:17:00.415Z,957.09
2018-07-20T06:18:00.401Z,957.10
2018-07-20T06:19:00.401Z,957.11
2018-07-20T06:20:00.375Z,957.12
2018-07-20T06:21:00.408Z,957.10
2018-07-20T06:22:00.361Z,957.12
2018-07-20T06:23:00.376Z,957.09
2018-07-20T06:24:00.357Z,957.10
2018-07-20T06:25:00.327Z,957.11
2018-07-20T06:26:00.383Z,957.08
2018-07-20T06:27:00.305Z,957.08
2018-07-20T06:28:00.301Z,957.05
2018-07-20T06:29:00.291Z,957.09
2018-07-20T06:30:00.272Z,957.06
2018-07-20T06:31:00.260Z,957.04
2018-07-20T06:32:00.309Z,957.04
2018-07-20T06:33:00.237Z,957.06
2018-07-20T06:34:00.237Z,957.01
2018-07-20T06:35:00.230Z,957.04
2018-07-20T06:36:00.218Z,957.05
2018-07-20T06:37:00.195Z,957.03
2018-07-20T06:38:00.227Z,957.00
2018-07-20T06:39:00.172Z,957.03
2018-07-20T06:40:00.166Z,956.99
2018-07-20T06:41:00.170Z,957.02
2018-07-20T06:42:00.186Z,957.00
2018-07-20T06:43:00.127Z,957.06
2018-07-20T06:44:00.128Z,956.98
2018-07-20T06:45:00.108Z,957.06
2018-07-20T06:46:00.110Z,956.96
2018-07-20T06:47:00.129Z,957.03
2018-07-20T06:48:00.114Z,957.01
2018-07-20T06:49:00.067Z,957.05
2018-07-20T06:50:00.053Z,957.04
2018-07-20T06:51:00.045Z,957.08
2018-07-20T06:52:00.057Z,957.05
2018-07-20T06:53:00.054Z,957.07
2018-07-20T06:54:00.015Z,957.15
2018-07-20T06:54:59.998Z,957.11
2018-07-20T06:56:00.009Z,957.12
2018-07-20T06:56:59.978Z,957.14
2018-07-20T06:58:00.036Z,957.12
2018-07-20T06:58:59.953Z,957.15
2018-07-20T06:59:59.962Z,957.14
2018-07-20T07:00:59.952Z,957.14
2018-07-20T07:01:59.923Z,957.10
2018-07-20T07:02:59.924Z,957.13
2018-07-20T07:03:59.937Z,957.09
2018-07-20T07:04:59.894Z,957.08
2018-07-20T07:05:59.890Z,957.12
2018-07-20T07:07:00.059Z,957.12
2018-07-20T07:07:59.861Z,957.13
2018-07-20T07:08:59.995Z,957.13
2018-07-20T07:09:59.844Z,957.14
2018-07-20T07:10:59.871Z,957.16
2018-07-20T07:11:59.841Z,957.19
2018-07-20T07:12:59.819Z,957.14
2018-07-20T07:13:59.796Z,957.14
2018-07-20T07:14:59.929Z,957.14
2018-07-20T07:15:59.796Z,957.15
2018-07-20T07:16:59.764Z,957.11
2018-07-20T07:17:59.754Z,957.13
2018-07-20T07:18:59.747Z,957.12
2018-07-20T07:19:59.777Z,957.14
2018-07-20T07:20:59.722Z,957.17
2018-07-20T07:21:59.713Z,957.16
2018-07-20T07:22:59.703Z,957.17
2018-07-20T07:23:59.689Z,957.12
2018-07-20T07:24:59.861Z,957.14
2018-07-20T07:25:59.789Z,957.12
2018-07-20T07:26:59.678Z,957.11
2018-07-20T07:27:59.650Z,957.10
2018-07-20T07:28:59.635Z,957.11
2018-07-20T07:29:59.630Z,957.15
2018-07-20T07:30:59.742Z,957.12
2018-07-20T07:31:59.607Z,957.12
2018-07-20T07:32:59.598Z,957.17
2018-07-20T07:33:59.586Z,957.15
2018-07-20T07:34:59.595Z,957.14
2018-07-20T07:35:59.745Z,957.20
2018-07-20T07:36:59.548Z,957.13
2018-07-20T07:37:59.545Z,957.14
2018-07-20T07:38:59.537Z,957.10
2018-07-20T07:39:59.521Z,957.06
2018-07-20T07:40:59.509Z,957.10
2018-07-20T07:41:59.564Z,957.07
2018-07-20T07:42:59.503Z,957.07
2018-07-20T07:43:59.482Z,957.02
2018-07-20T07:44:59.474Z,957.06
2018-07-20T07:45:59.454Z,957.05
2018-07-20T07:46:59.494Z,957.06
2018-07-20T07:47:59.433Z,957.00
2018-07-20T07:48:59.424Z,957.03
2018-07-20T07:49:59.416Z,957.01
2018-07-20T07:50:59.400Z,956.99
2018-07-20T07:51:59.394Z,956.98
2018-07-20T07:52:59.463Z,957.03
2018-07-20T07:53:59.370Z,957.00
2018-07-20T07:54:59.370Z,957.02
2018-07-20T07:55:59.355Z,956.98
2018-07-20T07:56:59.336Z,956.95
2018-07-20T07:57:59.365Z,956.97
2018-07-20T07:58:59.443Z,956.94
2018-07-20T07:59:59.301Z,956.96
2018-07-20T08:00:59.307Z,956.94
2018-07-20T08:01:59.303Z,956.98
2018-07-20T08:02:59.320Z,956.97
2018-07-20T08:03:59.285Z,956.99
2018-07-20T08:04:59.255Z,956.98
2018-07-20T08:05:59.245Z,956.96
2018-07-20T08:06:59.251Z,956.94
2018-07-20T08:07:59.223Z,956.96
2018-07-20T08:08:59.247Z,956.89
2018-07-20T08:09:59.447Z,956.90
2018-07-20T08:10:59.187Z,956.95
2018-07-20T08:11:59.194Z,956.90
2018-07-20T08:12:59.186Z,956.89
2018-07-20T08:13:59.279Z,956.92
2018-07-20T08:14:59.153Z,956.94
2018-07-20T08:15:59.142Z,956.85
2018-07-20T08:16:59.143Z,956.91
2018-07-20T08:17:59.115Z,956.91
2018-07-20T08:18:59.391Z,956.93
2018-07-20T08:19:59.206Z,956.92
2018-07-20T08:20:59.094Z,956.87
2018-07-20T08:21:59.079Z,956.92
2018-07-20T08:22:59.099Z,956.88
2018-07-20T08:23:59.053Z,956.90
2018-07-20T08:24:59.100Z,956.89
2018-07-20T08:25:59.036Z,956.87
2018-07-20T08:26:59.023Z,956.87
2018-07-20T08:27:59.016Z,956.93
2018-07-20T08:28:59.005Z,956.97
2018-07-20T08:29:58.995Z,956.99
2018-07-20T08:30:59.020Z,956.95
2018-07-20T08:31:58.981Z,957.00
2018-07-20T08:32:58.965Z,956.96
2018-07-20T08:33:58.955Z,957.00
2018-07-20T08:34:58.957Z,956.96
2018-07-20T08:35:59.127Z,956.97
2018-07-20T08:36:58.926Z,957.00
2018-07-20T08:37:58.956Z,957.02
2018-07-20T08:38:58.904Z,956.99
2018-07-20T08:39:58.900Z,957.01
2018-07-20T08:40:58.887Z,957.02
2018-07-20T08:41:58.912Z,957.03
2018-07-20T08:42:58.862Z,957.04
2018-07-20T08:43:58.861Z,957.04
2018-07-20T08:44:58.845Z,957.03
2018-07-20T08:45:58.838Z,957.06
2018-07-20T08:46:58.876Z,956.98
2018-07-20T08:47:58.831Z,956.95
2018-07-20T08:48:58.802Z,957.01
2018-07-20T08:49:58.887Z,957.02
2018-07-20T08:50:58.786Z,957.00
2018-07-20T08:51:58.825Z,957.02
2018-07-20T08:52:58.770Z,956.99
2018-07-20T08:53:58.810Z,956.94
2018-07-20T08:54:58.762Z,957.00
2018-07-20T08:55:58.764Z,956.95
2018-07-20T08:56:58.729Z,957.01
2018-07-20T08:57:58.767Z,956.96
2018-07-20T08:58:58.739Z,957.06
2018-07-20T08:59:58.708Z,956.89
2018-07-20T09:00:58.693Z,956.91
2018-07-20T09:01:58.756Z,956.93
2018-07-20T09:02:58.871Z,956.91
2018-07-20T09:03:58.661Z,956.91
2018-07-20T09:04:58.659Z,956.92
2018-07-20T09:05:58.660Z,957.04
2018-07-20T09:06:58.672Z,957.03
2018-07-20T09:07:58.691Z,957.01
2018-07-20T09:08:58.712Z,957.00
2018-07-20T09:09:58.627Z,957.03
2018-07-20T09:10:58.612Z,957.02
2018-07-20T09:11:58.603Z,957.01
2018-07-20T09:12:58.581Z,957.04
2018-07-20T09:13:58.759Z,956.99
2018-07-20T09:14:58.566Z,957.06
2018-07-20T09:15:58.583Z,957.05
2018-07-20T09:16:58.572Z,957.05
2018-07-20T09:17:58.548Z,956.99
2018-07-20T09:18:58.678Z,957.06
2018-07-20T09:19:58.571Z,957.04
2018-07-20T09:20:58.570Z,957.05
2018-07-20T09:21:58.518Z,957.03
2018-07-20T09:22:58.509Z,957.10
2018-07-20T09:23:58.497Z,956.99
2018-07-20T09:24:58.538Z,957.02
2018-07-20T09:25:58.470Z,957.00
2018-07-20T09:26:58.463Z,956.98
2018-07-20T09:27:58.455Z,957.02
2018-07-20T09:28:58.463Z,957.00
2018-07-20T09:29:58.475Z,957.03
2018-07-20T09:30:58.420Z,957.01
2018-07-20T09:31:58.430Z,957.01
2018-07-20T09:32:58.411Z,957.01
2018-07-20T09:33:58.404Z,956.99
2018-07-20T09:34:58.399Z,957.03
2018-07-20T09:35:58.416Z,956.97
2018-07-20T09:36:58.369Z,956.97
2018-07-20T09:37:58.369Z,957.08
2018-07-20T09:38:58.348Z,957.03
2018-07-20T09:39:58.392Z,956.99
2018-07-20T09:40:58.485Z,957.06
2018-07-20T09:41:58.328Z,957.07
2018-07-20T09:42:58.321Z,957.02
2018-07-20T09:43:58.313Z,957.00
2018-07-20T09:44:58.312Z,957.05
2018-07-20T09:45:58.303Z,957.05
2018-07-20T09:46:58.422Z,957.02
2018-07-20T09:47:58.283Z,957.01
2018-07-20T09:48:58.376Z,956.96
2018-07-20T09:49:58.282Z,956.97
2018-07-20T09:50:58.253Z,956.98
2018-07-20T09:51:58.279Z,956.99
2018-07-20T09:52:58.239Z,957.02
2018-07-20T09:53:58.238Z,956.98
2018-07-20T09:54:58.416Z,956.96
2018-07-20T09:55:58.223Z,956.95
2018-07-20T09:56:58.285Z,956.95
2018-07-20T09:57:58.217Z,956.97
2018-07-20T09:58:58.210Z,956.92
2018-07-20T09:59:58.188Z,956.93
2018-07-20T10:00:58.227Z,956.94
2018-07-20T10:01:58.174Z,956.89
2018-07-20T10:02:58.381Z,956.93
2018-07-20T10:03:58.158Z,956.93
2018-07-20T10:04:58.163Z,956.93
2018-07-20T10:05:58.144Z,956.88
2018-07-20T10:06:58.147Z,956.92
2018-07-20T10:07:58.133Z,956.98
2018-07-20T10:08:58.294Z,956.96
2018-07-20T10:09:58.130Z,956.88
2018-07-20T10:10:58.100Z,956.84
2018-07-20T10:11:58.098Z,956.73
2018-07-20T10:12:58.108Z,956.82
2018-07-20T10:13:58.110Z,956.76
2018-07-20T10:14:58.074Z,956.79
2018-07-20T10:15:58.114Z,956.80
2018-07-20T10:16:58.063Z,956.84
2018-07-20T10:17:58.053Z,956.85
2018-07-20T10:18:58.152Z,956.84
2018-07-20T10:19:58.039Z,956.75
2018-07-20T10:20:58.050Z,956.81
2018-07-20T10:21:58.032Z,956.86
2018-07-20T10:22:58.016Z,956.81
2018-07-20T10:23:58.013Z,956.79
2018-07-20T10:24:58.034Z,956.84
2018-07-20T10:25:58.000Z,956.73
2018-07-20T10:26:58.015Z,956.65
2018-07-20T10:27:57.985Z,956.61
2018-07-20T10:28:57.975Z,956.61
2018-07-20T10:29:58.289Z,956.73
2018-07-20T10:30:57.965Z,956.64
2018-07-20T10:31:57.980Z,956.62
2018-07-20T10:32:57.960Z,956.57
2018-07-20T10:33:57.957Z,956.67
2018-07-20T10:34:57.932Z,956.65
2018-07-20T10:35:57.967Z,956.65
2018-07-20T10:36:57.930Z,956.65
2018-07-20T10:37:57.910Z,956.62
2018-07-20T10:38:57.915Z,956.62
2018-07-20T10:39:57.899Z,956.61
2018-07-20T10:40:57.929Z,956.58
2018-07-20T10:41:57.881Z,956.63
2018-07-20T10:42:57.915Z,956.60
2018-07-20T10:43:57.874Z,956.61
2018-07-20T10:44:57.866Z,956.48
2018-07-20T10:45:58.036Z,956.50
2018-07-20T10:46:57.907Z,956.56
2018-07-20T10:47:57.855Z,956.40
2018-07-20T10:48:57.834Z,956.49
2018-07-20T10:49:57.829Z,956.45
2018-07-20T10:50:57.837Z,956.54
2018-07-20T10:51:57.898Z,956.43
2018-07-20T10:52:57.878Z,956.41
2018-07-20T10:53:57.815Z,956.45
2018-07-20T10:54:57.800Z,956.45
2018-07-20T10:55:57.799Z,956.38
2018-07-20T10:56:57.836Z,956.40
2018-07-20T10:57:57.778Z,956.42
2018-07-20T10:58:57.783Z,956.37
2018-07-20T10:59:57.771Z,956.37
2018-07-20T11:00:57.760Z,956.35
2018-07-20T11:01:57.768Z,956.32
2018-07-20T11:02:57.883Z,956.34
2018-07-20T11:03:57.745Z,956.33
2018-07-20T11:04:57.739Z,956.25
2018-07-20T11:05:57.729Z,956.24
2018-07-20T11:06:57.728Z,956.25
2018-07-20T11:07:57.758Z,956.26
2018-07-20T11:08:57.845Z,956.26
2018-07-20T11:09:57.706Z,956.28
2018-07-20T11:10:57.713Z,956.32
2018-07-20T11:11:57.690Z,956.19
2018-07-20T11:12:57.685Z,956.25
2018-07-20T11:13:57.718Z,956.22
2018-07-20T11:14:57.679Z,956.20
2018-07-20T11:15:57.669Z,956.21
2018-07-20T11:16:57.659Z,956.24
2018-07-20T11:17:57.661Z,956.19
2018-07-20T11:18:57.691Z,956.09
2018-07-20T11:19:57.647Z,956.07
2018-07-20T11:20:57.632Z,956.10
2018-07-20T11:21:57.634Z,956.07
2018-07-20T11:22:57.625Z,956.10
2018-07-20T11:23:57.647Z,956.09
2018-07-20T11:24:57.613Z,956.02
2018-07-20T11:25:57.619Z,956.11
2018-07-20T11:26:57.595Z,956.03
2018-07-20T11:27:57.595Z,956.09
2018-07-20T11:28:57.845Z,955.97
2018-07-20T11:29:57.583Z,955.88
2018-07-20T11:30:57.573Z,955.94
2018-07-20T11:31:57.569Z,955.88
2018-07-20T11:32:57.567Z,955.90
2018-07-20T11:33:57.563Z,955.96
2018-07-20T11:34:57.592Z,955.97
2018-07-20T11:35:57.540Z,956.07
2018-07-20T11:36:57.541Z,956.06
2018-07-20T11:37:57.536Z,955.99
2018-07-20T11:38:57.524Z,955.98
2018-07-20T11:39:57.514Z,955.92
2018-07-20T11:40:57.559Z,955.98
2018-07-20T11:41:57.578Z,955.92
2018-07-20T11:42:57.502Z,955.92
2018-07-20T11:43:57.489Z,955.95
2018-07-20T11:44:57.490Z,955.89
2018-07-20T11:45:57.521Z,955.88
2018-07-20T11:46:57.472Z,955.87
2018-07-20T11:47:57.473Z,955.87
2018-07-20T11:48:57.460Z,955.87
2018-07-20T11:49:57.451Z,955.92
2018-07-20T11:50:57.636Z,955.86
2018-07-20T11:51:57.441Z,955.81
2018-07-20T11:52:57.436Z,955.73
2018-07-20T11:53:57.438Z,955.82
2018-07-20T11:54:57.423Z,955.88
2018-07-20T11:55:57.506Z,955.82
2018-07-20T11:56:57.443Z,955.80
2018-07-20T11:57:57.398Z,955.72
2018-07-20T11:58:57.395Z,955.79
2018-07-20T11:59:57.414Z,955.85
2018-07-20T12:00:57.427Z,955.68
2018-07-20T12:01:57.826Z,955.74
2018-07-20T12:02:57.373Z,955.85
2018-07-20T12:03:57.370Z,955.79
2018-07-20T12:04:57.358Z,955.79
2018-07-20T12:05:57.387Z,955.86
2018-07-20T12:06:57.437Z,955.82
2018-07-20T12:07:57.409Z,955.73
2018-07-20T12:08:57.411Z,955.73
2018-07-20T12:09:57.314Z,955.72
2018-07-20T12:10:57.321Z,955.69
2018-07-20T12:11:57.302Z,955.69
2018-07-20T12:12:57.496Z,955.64
2018-07-20T12:13:57.284Z,955.66
2018-07-20T12:14:57.312Z,955.67
2018-07-20T12:15:57.299Z,955.64
2018-07-20T12:16:57.269Z,955.67
2018-07-20T12:17:57.258Z,955.62
2018-07-20T12:18:57.296Z,955.59
2018-07-20T12:19:57.243Z,955.58
2018-07-20T12:20:57.239Z,955.53
2018-07-20T12:21:57.233Z,955.54
2018-07-20T12:22:57.282Z,955.40
2018-07-20T12:23:57.361Z,955.43
2018-07-20T12:24:57.218Z,955.42
2018-07-20T12:25:57.194Z,955.53
2018-07-20T12:26:57.199Z,955.36
2018-07-20T12:27:57.203Z,955.39